x

Southeast Of Ponce, Pr (42085) Wave Buoy

5:00am - Thu 23rd Oct 2014 All times are AST. -4 hours from GMT.

  • Sig Wave height 2.3ft
  • Peak Period 5s
  • Wind
    9mph, 11mph gusts
  • Sea Temp 86°f
  • Sea Pressure 1011.6mb
  • Southeast Of Ponce, Pr
  • Southeast Of Ponce, Pr

More Historic Weather Station data

Upgrade to MSW Pro to gain access to the past 30 days of data for over 8000 Wavebouys and Weather Stations around the globe.

Join Pro

Comparision Forecast

View Surf forecast
   
Thu 10/23 5:00am 2.5ft 5s 9 11 mph 1011.6mb 86f
4:00am 2ft 5s 9 11 mph 1011.7mb 85f
3:00am 2ft 5s 4 7 mph 1011.9mb 86f
2:00am 2ft 5s 7 11 mph 1012.4mb 85f
1:00am 1.6ft 5s 11 16 mph 1012.8mb 85f
12:00am 2ft 5s 13 22 mph 1013.4mb 85f
Wed 10/22 11:00pm 2ft 5s 11 13 mph 1013.6mb 85f
10:00pm 2ft 5s 11 13 mph 1013.4mb 85f
9:00pm 2ft 5s 11 16 mph 1013.1mb 85f
8:00pm 2ft 5s 11 13 mph 1012.5mb 85f
7:00pm 2.5ft 5s 13 18 mph 1011.5mb 86f
6:00pm 2.5ft 5s 11 13 mph 1011.3mb 85f
5:00pm 3ft 5s 16 18 mph 1011.2mb 86f
4:00pm 3ft 5s 16 18 mph 1011mb 85f
3:00pm 3ft 5s 13 16 mph 1011.2mb 86f
2:00pm 2.5ft 5s 13 18 mph 1011.8mb 86f
1:00pm 2.5ft 5s 13 16 mph 1012.6mb 86f
12:50pm  -   -  11 16 mph 1012.7mb -
12:40pm  -   -  11 16 mph 1012.9mb -
12:30pm  -   -  11 16 mph 1013mb -
12:20pm  -   -  11 16 mph 1013.2mb -
12:10pm  -   -  11 16 mph 1013.4mb -
12:00pm 2.5ft 5s 11 16 mph 1013.5mb 85f
11:00am 2.5ft 5s 13 18 mph 1014.2mb 85f
10:00am 2.5ft 5s 13 18 mph 1014.6mb 85f
9:00am 2.5ft 5s 11 13 mph 1014.5mb 85f
8:00am 2ft 5s 9 11 mph 1014.2mb 85f
7:00am 2.5ft 5s 9
mph
1013.6mb 85f
6:00am 3ft 5s 11 13 mph 1013.1mb 85f
5:00am 2.5ft 5s 9 13 mph 1012.5mb 85f
4:50am  -   -  7 11 mph 1012.5mb -
4:40am  -   -  7 9 mph 1012.5mb -
4:30am  -   -  7 11 mph 1012.3mb -
4:20am  -   -  7 11 mph 1012.4mb -
4:10am  -   -  9 11 mph 1012.4mb -
4:00am 2.5ft 5s 9 11 mph 1012.5mb 85f
3:50am  -   -  7 9 mph 1012.5mb -
3:00am 2.5ft 4s 9 11 mph 1012.5mb 85f
2:50am  -   -  9 11 mph 1012.5mb -
2:00am 2ft 5s 9 11 mph 1012.9mb 85f
1:50am  -   -  9 11 mph 1013mb -
1:00am 2ft 5s 11 13 mph 1013.3mb 85f
12:50am  -   -  9 11 mph 1013.3mb -
12:00am 2ft 5s 11 13 mph 1013.7mb 85f
Tue 10/21 11:50pm  -   -  9 11 mph 1013.8mb -
11:00pm 2ft 5s 11 13 mph 1013.9mb 85f
10:50pm  -   -  11 13 mph 1013.9mb -
10:00pm 2.5ft 5s 13 16 mph 1013.6mb 85f
9:50pm  -   -  13 18 mph 1013.6mb -
9:40pm  -   -  13 16 mph 1013.5mb -
9:30pm  -   -  13 16 mph 1013.4mb -
9:20pm  -   -  13 16 mph 1013.3mb -
9:10pm  -   -  13 16 mph 1013.3mb -
9:00pm 2.5ft 5s 13 16 mph 1013.3mb 85f
8:50pm  -   -  13 16 mph 1013.1mb -
8:00pm 2.5ft 5s 13 18 mph 1012.5mb 85f
7:50pm  -   -  13 18 mph 1012.5mb -
7:00pm 2.5ft 5s 16 18 mph 1011.5mb 85f
6:50pm  -   -  16 18 mph 1011.5mb -
6:00pm 2.5ft 5s 16 20 mph 1011.2mb 85f
5:50pm  -   -  16 20 mph 1011.1mb -
5:00pm 2.5ft 5s 16 20 mph 1010.9mb 85f
4:50pm  -   -  16 18 mph 1010.9mb -
4:00pm 3ft 5s 16 20 mph 1010.9mb 86f
3:50pm  -   -  18 20 mph 1010.9mb -
3:00pm 2.5ft 5s 16 20 mph 1011.2mb 85f
2:30pm  -   -  16 18 mph 1011.5mb -
2:20pm  -   -  16 18 mph 1011.5mb -
2:00pm 2.5ft 4s 16 18 mph 1011.6mb 85f
1:00pm 2.5ft 5s 13 18 mph 1012.3mb 85f
12:50pm  -   -  13 18 mph 1012.4mb -
12:00pm 2.5ft 4s 13 16 mph 1013.3mb 85f
11:50am  -   -  13 16 mph 1013.5mb -
11:00am 2.5ft 5s 13 18 mph 1014mb 85f
10:50am  -   -  16 18 mph 1014.2mb -
10:00am 2ft 4s 11 16 mph 1014.3mb 85f
9:50am  -   -  13 16 mph 1014.4mb -
9:00am 1.6ft 5s 7 9 mph 1014.3mb 85f
8:50am  -   -  9 11 mph 1014.2mb -
8:00am 1.6ft 5s 7 11 mph 1013.7mb 85f
7:50am  -   -  7 9 mph 1013.6mb -
7:40am  -   -  7 9 mph 1013.5mb -
7:30am  -   -  7 9 mph 1013.3mb -
7:20am  -   -  7 9 mph 1013.2mb -
7:10am  -   -  7 9 mph 1013.1mb -
7:00am 1.6ft 4s 7 9 mph 1013.1mb 85f
6:50am  -   -  7 9 mph 1013mb -
6:00am 2ft 4s 9 11 mph 1012.2mb 85f
5:50am  -   -  9 13 mph 1012.1mb -
5:30am  -   -  9 11 mph 1011.9mb -
5:20am  -   -  9 11 mph 1011.8mb -
5:00am 2.5ft 4s 11 13 mph 1011.6mb 85f
4:30am  -   -   -  mph 1011.6mb -
4:20am  -   -   -  mph 1011.5mb -
4:00am 2.5ft 4s 11 13 mph 1011.5mb 85f
3:00am 2.5ft 4s 11 13 mph 1011.8mb 85f
2:50am  -   -   -  mph 1011.9mb -
2:00am 2ft 4s 9 11 mph 1012.3mb 85f
1:50am  -   -   -  mph 1012.2mb -
1:00am 2ft 4s 9 11 mph 1012.8mb 85f
12:50am  -   -   -  mph 1012.8mb -
12:00am 2ft 4s 11 13 mph 1013.4mb 85f
Mon 10/20 11:50pm  -   -  11 13 mph 1013.5mb -
11:00pm 2ft 4s 9 13 mph 1013.8mb 85f
10:50pm  -   -  9
mph
1014mb -
10:00pm 1.6ft 4s 7 11 mph 1013.8mb 85f
9:50pm  -   -  9
mph
1013.8mb -
9:00pm 1.6ft 4s 9 11 mph 1013.6mb 85f
8:00pm 2ft 4s 7 13 mph 1013.1mb 85f
7:00pm 1.6ft 4s 7 9 mph 1011.8mb 85f
6:40pm  -   -  7 9 mph 1011.6mb -
6:30pm  -   -  9 11 mph 1011.9mb -
6:20pm  -   -  7 9 mph 1012mb -
6:10pm  -   -  7 9 mph 1012.1mb -
6:00pm 2ft 10s 7 11 mph 1012.1mb 85f
5:00pm 2ft 4s 9 13 mph 1012mb 85f
4:50pm  -   -  11 16 mph 1012.1mb -
4:00pm 2.5ft 4s 16 20 mph 1011.5mb 85f
3:50pm  -   -  16 18 mph 1011.3mb -
3:00pm 2ft 4s 13 16 mph 1011.7mb 86f
2:50pm  -   -  13 18 mph 1011.5mb -
2:00pm 2ft 4s 13 18 mph 1011.9mb 86f
1:50pm  -   -  13 16 mph 1012.1mb -
1:00pm 1.6ft 4s 13 16 mph 1012.8mb 86f
12:50pm  -   -  11 13 mph 1013mb -
12:00pm 1.3ft 11s 9 11 mph 1013.7mb 86f
11:50am  -   -  9 11 mph 1013.7mb -
11:00am 1.3ft 4s 9 11 mph 1014.5mb 86f
10:00am 1.3ft 10s 7 9 mph 1014.8mb 85f
9:50am  -   -  7 9 mph 1014.8mb -
9:40am  -   -  7 9 mph 1014.8mb -
9:30am  -   -  7 9 mph 1014.8mb -
9:20am  -   -  7 9 mph 1014.7mb -
9:10am  -   -  9
mph
1014.6mb -
9:00am 1.3ft 4s 9 11 mph 1014.5mb 85f
8:50am  -   -  9 11 mph 1014.4mb -
8:40am  -   -  9
mph
1014.4mb -
8:30am  -   -  9 11 mph 1014.1mb -
8:20am  -   -  9 11 mph 1014mb -
8:00am 1.3ft 10s 9 11 mph 1013.9mb 85f
7:00am  -   -   -  mph - 85f
6:50am  -   -  7 9 mph 1013.3mb -
6:30am  -   -  7 9 mph 1013mb -
6:20am  -   -  7 9 mph 1012.8mb -
6:00am 1.3ft 11s 7 9 mph 1012.6mb 85f
5:30am  -   -  7 9 mph 1012.4mb -
5:20am  -   -  9
mph
1012.4mb -
5:10am  -   -  7 9 mph 1012.3mb -
5:00am 1.3ft 3s 7 9 mph 1012.2mb 85f
4:00am 1.3ft 11s 7 9 mph 1012.1mb 85f
3:50am  -   -  7 9 mph 1012.1mb -
3:00am 1.3ft 4s 7
mph
1012.1mb 85f
2:50am  -   -  7
mph
1012.2mb -
2:00am 1.3ft 4s 9
mph
1012.7mb 85f
1:50am  -   -  7 9 mph 1012.8mb -
1:10am  -   -  7 9 mph 1013.1mb -
1:00am 1.3ft 4s 7 9 mph 1013.1mb 85f
12:10am  -   -  7 9 mph 1013.6mb -
12:00am 1.3ft 8s 9 11 mph 1013.7mb 85f
Sun 10/19 11:50pm  -   -  9
mph
1013.7mb -
11:00pm 1.3ft 9s 9 11 mph 1013.7mb 85f
10:50pm  -   -  11
mph
1013.6mb -
10:00pm 1.3ft 11s 9
mph
1013.6mb 85f
9:50pm  -   -  9
mph
1013.6mb -
9:00pm 1.3ft 11s 7 9 mph 1013.3mb 85f
8:50pm  -   -  7 9 mph 1013.2mb -
8:00pm 1.3ft 10s 7 9 mph 1013mb 86f
7:50pm  -   -  7 9 mph 1013mb -
7:00pm 1.3ft 10s 7 9 mph 1012.2mb 86f
6:50pm  -   -  7 9 mph 1012.1mb -
6:00pm 1.6ft 14s 11
mph
1012.3mb 86f
5:00pm 1.3ft 8s 13 18 mph 1012.2mb 86f
4:30pm  -   -  7 9 mph 1011.8mb -
4:20pm  -   -  9 11 mph 1011.6mb -
4:10pm  -   -  7 9 mph 1011.6mb -
4:00pm 1.6ft 14s 9 11 mph 1011.5mb 86f
3:00pm 1.6ft 3s 9 11 mph 1011.3mb 86f
2:50pm  -   -  9 11 mph 1011.5mb -
2:00pm 1.3ft 9s 11
mph
1011.7mb 86f
1:50pm  -   -  9 11 mph 1011.8mb -
1:00pm 1.6ft 3s 9 11 mph 1012.5mb 86f
12:00pm 1.3ft 4s 9
mph
1013.5mb 86f
11:50am  -   -  7 9 mph 1013.6mb -
11:00am 1.3ft 11s 9
mph
1014.2mb 85f
10:50am  -   -  9 11 mph 1014.3mb -